Time;durP1;ratioP1;P1;durP2;ratioP2;P2;SDS_P1;SDS_P2;PMS_P1;PMS_P2;Temp;Humidity;BMP_temperature;BMP_pressure;BME280_temperature;BME280_humidity;BME280_pressure;Samples;Min_cycle;Max_cycle;Signal;HPM_P1;HPM_P2
2022/11/28 02:10:01;;;;;;;12.68;11.64;;;;;;;3.28;79.67;102192.20;512470;103;947202;-75
2022/11/28 02:11:27;;;;;;;11.71;10.89;;;;;;;3.24;79.37;102201.53;503319;105;922752;-77
2022/11/28 02:12:55;;;;;;;12.01;11.14;;;;;;;3.30;79.29;102200.16;500006;105;922436;-76
2022/11/28 02:14:09;;;;;;;11.45;10.54;;;;;;;3.36;79.12;102205.05;493885;107;922463;-78
2022/11/28 02:15:19;;;;;;;11.52;10.57;;;;;;;3.42;79.16;102203.67;472239;107;922829;-77
2022/11/28 02:16:26;;;;;;;11.23;9.91;;;;;;;3.47;79.26;102201.45;493248;107;922430;-78
2022/11/28 02:17:45;;;;;;;11.49;10.04;;;;;;;3.51;79.12;102190.27;493206;107;922969;-77
2022/11/28 02:18:54;;;;;;;10.84;10.06;;;;;;;3.55;79.07;102204.33;492636;107;922596;-79
2022/11/28 02:20:04;;;;;;;9.98;9.21;;;;;;;3.59;78.90;102205.78;493637;107;922530;-77
2022/11/28 02:21:22;;;;;;;10.64;9.88;;;;;;;3.64;78.97;102206.23;493957;107;923521;-77
2022/11/28 02:22:28;;;;;;;9.94;9.07;;;;;;;3.68;78.95;102205.88;493934;107;922768;-76
2022/11/28 02:23:53;;;;;;;8.98;8.34;;;;;;;3.74;78.86;102202.66;495955;105;922470;-79
2022/11/28 02:25:17;;;;;;;8.44;7.74;;;;;;;3.85;78.61;102208.97;493930;107;922902;-77
2022/11/28 02:26:58;;;;;;;8.91;8.21;;;;;;;3.85;78.61;102208.97;493692;107;922314;-75
2022/11/28 02:28:25;;;;;;;8.66;8.00;;;;;;;3.89;78.52;102207.71;494311;107;922458;-75
2022/11/28 02:30:04;;;;;;;7.89;7.33;;;;;;;3.93;78.37;102214.55;493468;107;922584;-73
2022/11/28 02:31:27;;;;;;;7.63;7.04;;;;;;;3.95;78.37;102215.28;494038;107;922441;-74
2022/11/28 02:32:57;;;;;;;6.65;6.05;;;;;;;3.98;78.37;102213.16;494007;107;922763;-75
2022/11/28 02:34:03;;;;;;;7.01;6.48;;;;;;;4.01;78.22;102215.62;493941;107;922456;-74
2022/11/28 02:35:15;;;;;;;6.82;6.31;;;;;;;4.06;78.28;102217.91;493690;107;922539;-75
2022/11/28 02:36:31;;;;;;;6.81;6.31;;;;;;;4.12;77.99;102218.24;493958;107;922445;-75
2022/11/28 02:37:56;;;;;;;6.38;5.88;;;;;;;4.12;77.99;102218.24;493942;107;922467;-73
2022/11/28 02:39:06;;;;;;;6.19;5.79;;;;;;;4.15;77.71;102219.80;493233;107;922892;-74
2022/11/28 02:40:44;;;;;;;6.00;5.57;;;;;;;4.16;77.52;102216.98;493068;107;922555;-75
2022/11/28 02:42:21;;;;;;;5.80;5.36;;;;;;;4.21;76.90;102230.07;477223;110;946845;-75
2022/11/28 02:43:45;;;;;;;5.61;5.11;;;;;;;4.21;76.90;102230.07;465477;114;922793;-74
2022/11/28 02:44:55;;;;;;;5.62;5.17;;;;;;;4.24;76.95;102228.97;459295;112;922296;-77
2022/11/28 02:46:07;;;;;;;5.58;5.18;;;;;;;4.25;76.92;102234.20;458482;116;922582;-76
2022/11/28 02:47:23;;;;;;;5.09;4.77;;;;;;;4.26;76.93;102227.83;458520;112;921965;-77
2022/11/28 02:48:32;;;;;;;5.49;5.07;;;;;;;4.29;76.73;102229.42;458777;114;921995;-77
2022/11/28 02:49:42;;;;;;;5.82;5.34;;;;;;;4.31;76.50;102230.11;458548;112;922182;-79
2022/11/28 02:51:01;;;;;;;5.50;5.10;;;;;;;4.31;76.44;102232.81;458436;111;921997;-77
2022/11/28 02:52:10;;;;;;;4.81;4.44;;;;;;;4.33;76.30;102230.84;458656;116;922006;-76
2022/11/28 02:53:17;;;;;;;5.25;4.85;;;;;;;4.34;76.06;102228.02;458571;115;922087;-77
2022/11/28 02:54:22;;;;;;;6.11;5.32;;;;;;;4.36;75.96;102233.27;458584;114;922013;-77
2022/11/28 02:55:26;;;;;;;5.56;5.16;;;;;;;4.38;75.90;102234.00;458557;116;921962;-77
2022/11/28 02:56:29;;;;;;;5.07;4.72;;;;;;;4.40;75.84;102240.99;465175;113;921911;-78
2022/11/28 02:57:41;;;;;;;5.47;5.02;;;;;;;4.42;75.74;102236.29;467897;113;922335;-77
2022/11/28 02:58:44;;;;;;;5.76;5.36;;;;;;;4.44;75.56;102242.42;467785;113;922820;-78
2022/11/28 02:59:50;;;;;;;5.93;5.37;;;;;;;4.46;75.52;102245.00;467843;113;922374;-78
2022/11/28 03:00:54;;;;;;;5.01;4.62;;;;;;;4.46;75.20;102237.76;467490;113;923005;-76
2022/11/28 03:01:59;;;;;;;5.24;4.86;;;;;;;4.46;75.21;102242.30;467499;113;922047;-76
2022/11/28 03:03:15;;;;;;;4.98;4.51;;;;;;;4.46;75.12;102239.60;467418;113;929958;-77
2022/11/28 03:04:25;;;;;;;5.19;4.79;;;;;;;4.47;75.10;102238.58;467464;113;923210;-78
2022/11/28 03:05:44;;;;;;;4.87;4.41;;;;;;;4.48;74.92;102243.86;466860;113;922111;-77
2022/11/28 03:07:02;;;;;;;4.67;4.31;;;;;;;4.48;74.93;102246.56;466173;113;922293;-77
2022/11/28 03:08:09;;;;;;;4.29;3.99;;;;;;;4.50;74.89;102243.73;466605;113;922458;-77
2022/11/28 03:09:21;;;;;;;5.10;4.67;;;;;;;4.51;74.88;102240.91;458574;113;922416;-76
2022/11/28 03:10:34;;;;;;;4.51;4.13;;;;;;;4.52;74.75;102247.17;447370;118;922844;-78
2022/11/28 03:12:09;;;;;;;4.89;4.47;;;;;;;4.52;74.64;102250.69;446627;118;922305;-76
2022/11/28 03:13:27;;;;;;;5.13;4.59;;;;;;;4.52;74.57;102242.59;447733;118;923078;-77
2022/11/28 03:14:51;;;;;;;4.99;4.59;;;;;;;4.52;74.51;102239.89;447482;116;922556;-78
2022/11/28 03:16:18;;;;;;;5.71;5.17;;;;;;;4.51;74.41;102238.20;447688;118;923029;-77
2022/11/28 03:17:28;;;;;;;5.73;5.21;;;;;;;4.53;74.39;102246.15;447313;118;922498;-77
2022/11/28 03:18:35;;;;;;;6.04;5.63;;;;;;;4.52;74.24;102245.29;447566;118;922538;-77
2022/11/28 03:19:58;;;;;;;5.67;5.24;;;;;;;4.51;74.22;102245.45;447592;116;922532;-77
2022/11/28 03:21:08;;;;;;;6.02;5.52;;;;;;;4.50;74.12;102243.73;447664;118;922491;-76
2022/11/28 03:22:26;;;;;;;5.65;5.17;;;;;;;4.51;74.14;102250.85;431019;122;923048;-77
2022/11/28 03:23:43;;;;;;;5.88;5.31;;;;;;;4.61;74.05;102249.05;477291;110;947609;-77
2022/11/28 03:25:07;;;;;;;5.13;4.65;;;;;;;4.50;74.05;102247.30;457535;116;922616;-76
2022/11/28 03:26:20;;;;;;;5.28;4.79;;;;;;;4.52;74.02;102255.27;457499;116;922534;-77
2022/11/28 03:27:26;;;;;;;5.40;4.98;;;;;;;4.51;73.95;102253.55;457212;115;922508;-76
2022/11/28 03:28:36;;;;;;;5.34;4.94;;;;;;;4.50;74.03;102251.84;457464;116;923064;-78
2022/11/28 03:29:47;;;;;;;5.61;5.03;;;;;;;4.50;74.02;102249.13;456924;115;922967;-77
2022/11/28 03:31:05;;;;;;;6.55;6.01;;;;;;;4.50;73.94;102246.44;457366;115;922503;-77
2022/11/28 03:32:21;;;;;;;5.94;5.44;;;;;;;4.51;73.82;102253.55;457483;116;922804;-78
2022/11/28 03:33:35;;;;;;;5.64;5.20;;;;;;;4.61;73.92;102249.91;488293;107;926041;-77
2022/11/28 03:34:43;;;;;;;5.43;5.00;;;;;;;4.51;73.81;102249.01;469687;111;922400;-77
2022/11/28 03:35:50;;;;;;;5.28;4.84;;;;;;;4.51;73.65;102257.11;467039;113;922537;-77
2022/11/28 03:37:03;;;;;;;5.23;4.82;;;;;;;4.48;73.64;102241.16;466929;113;922461;-76
2022/11/28 03:38:21;;;;;;;6.09;5.59;;;;;;;4.47;73.66;102242.14;466638;113;922511;-78
2022/11/28 03:39:31;;;;;;;5.78;5.29;;;;;;;4.46;73.55;102248.56;466886;111;923072;-77
2022/11/28 03:40:44;;;;;;;5.84;5.34;;;;;;;4.43;73.49;102242.55;467316;113;922615;-78
2022/11/28 03:41:51;;;;;;;5.26;4.86;;;;;;;4.40;73.35;102246.39;466950;113;922462;-77
2022/11/28 03:43:03;;;;;;;5.29;4.89;;;;;;;4.39;73.35;102246.52;467058;113;922663;-78
2022/11/28 03:44:10;;;;;;;5.31;4.81;;;;;;;4.37;73.33;102246.64;466983;111;922996;-77
2022/11/28 03:45:17;;;;;;;5.02;4.68;;;;;;;4.36;73.38;102244.06;466031;113;922492;-78
2022/11/28 03:46:23;;;;;;;5.83;5.09;;;;;;;4.36;73.45;102252.17;466996;113;922451;-77
2022/11/28 03:47:30;;;;;;;5.17;4.77;;;;;;;4.35;73.46;102243.24;466973;113;923194;-77
2022/11/28 03:48:37;;;;;;;5.56;5.16;;;;;;;4.36;73.43;102244.92;467336;113;922459;-77
2022/11/28 03:49:43;;;;;;;5.93;5.39;;;;;;;4.36;73.42;102239.53;466976;111;922432;-76
2022/11/28 03:50:50;;;;;;;5.90;5.40;;;;;;;4.35;73.38;102240.55;466825;113;922456;-77
2022/11/28 03:52:05;;;;;;;5.93;5.53;;;;;;;4.35;73.32;102235.14;458943;113;922848;-77
2022/11/28 03:53:18;;;;;;;6.07;5.57;;;;;;;4.34;73.34;102236.13;458820;115;922619;-77
2022/11/28 03:54:30;;;;;;;6.08;5.63;;;;;;;4.35;73.28;102240.55;458825;113;923371;-78
2022/11/28 03:55:46;;;;;;;5.54;5.14;;;;;;;4.35;73.21;102240.55;458648;115;922556;-78
2022/11/28 03:56:59;;;;;;;5.82;5.33;;;;;;;4.35;73.27;102245.94;459698;111;922520;-77
2022/11/28 03:58:12;;;;;;;5.21;4.87;;;;;;;4.33;73.13;102242.51;476073;111;922982;-77
2022/11/28 03:59:19;;;;;;;6.48;5.97;;;;;;;4.32;73.14;102246.19;476042;111;922464;-79
2022/11/28 04:00:23;;;;;;;5.23;4.46;;;;;;;4.32;73.08;102248.03;476029;111;922789;-78
2022/11/28 04:01:30;;;;;;;4.73;4.39;;;;;;;4.31;73.07;102246.31;476120;111;922413;-77
2022/11/28 04:02:37;;;;;;;5.60;5.20;;;;;;;4.31;73.03;102246.31;475840;111;922922;-78
2022/11/28 04:03:44;;;;;;;5.66;5.23;;;;;;;4.29;72.91;102245.61;476054;111;922472;-78
2022/11/28 04:04:53;;;;;;;5.03;4.64;;;;;;;4.29;72.91;102248.31;476040;111;922849;-76
2022/11/28 04:06:03;;;;;;;5.13;4.73;;;;;;;4.28;72.92;102247.45;457637;111;922503;-78
2022/11/28 04:07:16;;;;;;;5.28;4.88;;;;;;;4.28;72.69;102257.40;456756;116;922366;-78
2022/11/28 04:08:22;;;;;;;5.17;4.77;;;;;;;4.24;72.55;102248.72;456765;116;922628;-79
2022/11/28 04:09:38;;;;;;;5.82;5.33;;;;;;;4.22;72.60;102252.53;456720;116;922795;-77
2022/11/28 04:10:45;;;;;;;4.31;3.97;;;;;;;4.22;72.75;102258.78;456751;116;923117;-77
2022/11/28 04:11:57;;;;;;;4.28;3.97;;;;;;;4.22;72.72;102256.09;456728;116;922506;-77
2022/11/28 04:13:16;;;;;;;4.34;4.03;;;;;;;4.22;72.72;102253.39;456177;116;922505;-76
2022/11/28 04:14:29;;;;;;;4.41;3.92;;;;;;;4.24;72.78;102251.42;456750;114;923000;-79
2022/11/28 04:15:56;;;;;;;4.42;4.11;;;;;;;4.24;72.78;102253.27;456353;116;922790;-77
2022/11/28 04:17:15;;;;;;;4.47;4.13;;;;;;;4.24;72.75;102254.13;456767;116;922707;-77
2022/11/28 04:18:22;;;;;;;4.59;4.29;;;;;;;4.24;72.63;102256.82;456716;116;922615;-77
2022/11/28 04:19:32;;;;;;;5.01;4.62;;;;;;;4.24;72.67;102264.06;456766;114;922593;-80
2022/11/28 04:20:48;;;;;;;4.78;4.39;;;;;;;4.34;72.73;102265.83;477177;110;947292;-77
2022/11/28 04:22:16;;;;;;;4.73;4.33;;;;;;;4.24;72.57;102270.32;465561;113;922909;-77
2022/11/28 04:23:21;;;;;;;4.97;4.57;;;;;;;4.23;72.54;102265.91;465504;114;922494;-75
2022/11/28 04:24:28;;;;;;;5.10;4.70;;;;;;;4.25;72.57;102268.45;454417;113;922621;-76
2022/11/28 04:25:35;;;;;;;4.99;4.57;;;;;;;4.24;72.54;102269.46;447482;118;922496;-77
2022/11/28 04:26:41;;;;;;;5.59;5.13;;;;;;;4.25;72.59;102274.70;447582;118;923004;-78
2022/11/28 04:27:51;;;;;;;5.31;4.86;;;;;;;4.24;72.47;102275.72;447549;118;922990;-77
2022/11/28 04:28:58;;;;;;;4.71;4.29;;;;;;;4.24;72.35;102270.32;447436;118;922608;-78
2022/11/28 04:30:03;;;;;;;6.10;5.48;;;;;;;4.24;72.35;102270.32;447586;118;922995;-78
2022/11/28 04:31:08;;;;;;;5.94;5.46;;;;;;;4.24;72.19;102270.32;447591;118;922448;-78
2022/11/28 04:32:13;;;;;;;5.37;4.85;;;;;;;4.23;72.19;102268.60;447596;118;922641;-77
2022/11/28 04:33:20;;;;;;;5.00;4.63;;;;;;;4.20;72.14;102277.80;447574;118;923120;-78
2022/11/28 04:34:26;;;;;;;4.31;3.90;;;;;;;4.19;72.08;102280.63;447561;116;922517;-78
2022/11/28 04:35:35;;;;;;;4.79;4.39;;;;;;;4.17;72.01;102277.23;447579;118;922624;-77
2022/11/28 04:36:43;;;;;;;5.17;4.76;;;;;;;4.13;71.98;102279.34;447870;118;922515;-76
2022/11/28 04:37:47;;;;;;;5.40;4.94;;;;;;;4.10;71.93;102281.43;447589;118;922587;-78
2022/11/28 04:38:57;;;;;;;6.10;5.58;;;;;;;4.09;71.98;102285.11;447606;118;922827;-78
2022/11/28 04:40:01;;;;;;;5.81;5.38;;;;;;;4.07;72.13;102273.61;446869;118;930577;-79
2022/11/28 04:41:11;;;;;;;5.74;5.24;;;;;;;4.07;72.13;102276.31;447669;118;922511;-77
2022/11/28 04:42:28;;;;;;;5.48;5.01;;;;;;;4.05;72.18;102279.13;446938;118;922746;-78
2022/11/28 04:43:37;;;;;;;7.43;5.03;;;;;;;4.05;72.13;102275.58;447015;118;923023;-78
2022/11/28 04:44:56;;;;;;;5.44;4.93;;;;;;;4.06;72.23;102278.15;447418;116;922811;-78
2022/11/28 04:46:05;;;;;;;5.38;4.98;;;;;;;4.06;72.19;102275.45;447592;118;922629;-78
2022/11/28 04:47:09;;;;;;;5.14;4.74;;;;;;;4.04;72.10;102276.55;447544;118;922676;-77
2022/11/28 04:48:13;;;;;;;5.12;4.72;;;;;;;4.03;72.11;102277.53;447662;118;922642;-76
2022/11/28 04:49:16;;;;;;;5.59;5.09;;;;;;;4.01;72.07;102274.99;449700;117;922493;-78
2022/11/28 04:50:22;;;;;;;5.11;4.71;;;;;;;4.00;72.16;102278.67;449776;118;923445;-76
2022/11/28 04:51:45;;;;;;;4.76;4.38;;;;;;;4.00;72.11;102275.11;449566;118;922647;-77
2022/11/28 04:52:55;;;;;;;5.23;4.83;;;;;;;3.99;72.14;102278.80;449399;117;922513;-77
2022/11/28 04:54:08;;;;;;;5.51;4.99;;;;;;;4.00;72.28;102283.20;449603;117;923046;-78
2022/11/28 04:55:29;;;;;;;6.34;5.71;;;;;;;4.01;72.33;102279.53;449587;118;922510;-78
2022/11/28 04:56:39;;;;;;;6.72;6.15;;;;;;;4.01;72.42;102274.13;449478;117;922448;-77
2022/11/28 04:57:46;;;;;;;5.96;5.50;;;;;;;4.01;72.41;102282.23;449631;118;922949;-77
2022/11/28 04:58:50;;;;;;;6.59;6.03;;;;;;;4.00;72.42;102285.91;449615;118;922876;-76
2022/11/28 04:59:55;;;;;;;6.34;5.83;;;;;;;3.98;72.54;102277.08;449661;117;922430;-80
2022/11/28 05:01:00;;;;;;;7.08;6.41;;;;;;;3.98;72.58;102277.94;449629;118;923011;-78
2022/11/28 05:02:05;;;;;;;6.54;6.02;;;;;;;3.99;72.62;102286.89;448027;116;922491;-79
2022/11/28 05:03:09;;;;;;;6.07;5.59;;;;;;;3.98;72.67;102287.87;447588;118;922552;-78
2022/11/28 05:04:13;;;;;;;8.47;6.04;;;;;;;3.99;72.74;102286.89;447637;118;922537;-78
2022/11/28 05:05:19;;;;;;;6.29;5.74;;;;;;;3.98;72.82;102295.97;447609;118;922824;-76
2022/11/28 05:06:31;;;;;;;6.71;6.12;;;;;;;3.98;72.82;102295.97;447537;118;922987;-78
2022/11/28 05:07:35;;;;;;;5.92;5.38;;;;;;;3.98;72.95;102295.97;447540;118;923104;-77
2022/11/28 05:08:38;;;;;;;7.74;6.41;;;;;;;3.98;73.07;102287.87;447759;118;922496;-78
2022/11/28 05:09:41;;;;;;;7.09;6.49;;;;;;;3.98;73.00;102293.27;447747;118;922552;-77
2022/11/28 05:10:45;;;;;;;6.89;6.34;;;;;;;3.98;73.13;102294.13;447690;118;922610;-78
2022/11/28 05:11:48;;;;;;;6.98;6.42;;;;;;;3.97;73.16;102289.70;447676;118;923032;-78
2022/11/28 05:12:51;;;;;;;6.80;6.20;;;;;;;3.96;73.09;102287.16;447716;118;922492;-78
2022/11/28 05:13:55;;;;;;;6.37;5.87;;;;;;;3.94;73.06;102289.98;447650;118;922802;-77
2022/11/28 05:14:58;;;;;;;7.07;6.40;;;;;;;3.93;73.19;102293.66;447652;118;922633;-78
2022/11/28 05:16:03;;;;;;;6.54;5.94;;;;;;;3.92;73.19;102291.95;447738;118;922662;-77
2022/11/28 05:17:07;;;;;;;7.58;6.91;;;;;;;3.91;73.32;102292.95;447578;118;922512;-77
2022/11/28 05:18:10;;;;;;;6.70;6.10;;;;;;;3.91;73.35;102294.80;447673;118;922874;-77
2022/11/28 05:19:14;;;;;;;7.41;6.72;;;;;;;3.90;73.38;102301.17;447675;118;922582;-76
2022/11/28 05:20:18;;;;;;;6.59;6.04;;;;;;;3.89;73.36;102299.45;447584;118;922863;-78
2022/11/28 05:21:21;;;;;;;6.85;6.25;;;;;;;3.88;73.48;102300.44;447758;118;922940;-77
2022/11/28 05:22:24;;;;;;;6.70;6.17;;;;;;;3.87;73.43;102301.41;447768;118;922699;-78
2022/11/28 05:23:27;;;;;;;6.60;6.10;;;;;;;3.86;73.57;102305.95;447999;118;922547;-78
2022/11/28 05:24:30;;;;;;;5.74;5.34;;;;;;;3.83;73.46;102300.83;456466;116;923052;-77
2022/11/28 05:25:38;;;;;;;6.29;5.70;;;;;;;3.82;73.51;102307.20;457481;116;922570;-78
2022/11/28 05:26:42;;;;;;;5.97;5.42;;;;;;;3.82;73.53;102309.05;457486;116;923079;-78
2022/11/28 05:27:45;;;;;;;5.59;5.10;;;;;;;3.81;73.69;102308.19;457535;116;922450;-76
2022/11/28 05:28:49;;;;;;;5.11;4.63;;;;;;;3.82;73.75;102311.73;457530;116;930519;-78
2022/11/28 05:29:53;;;;;;;5.48;4.79;;;;;;;3.81;73.88;102310.88;457419;116;922559;-78
2022/11/28 05:30:58;;;;;;;5.15;4.75;;;;;;;3.82;73.72;102319.84;457608;116;924629;-78
2022/11/28 05:32:01;;;;;;;5.22;4.74;;;;;;;3.81;73.64;102310.88;457022;115;922539;-77
2022/11/28 05:33:04;;;;;;;5.09;4.67;;;;;;;3.81;73.69;102316.28;457434;116;922530;-78
2022/11/28 05:34:07;;;;;;;5.22;4.81;;;;;;;3.80;73.73;102317.29;457488;116;922461;-77
2022/11/28 05:35:11;;;;;;;5.28;4.83;;;;;;;3.81;73.83;102307.33;457505;115;923314;-78
2022/11/28 05:36:15;;;;;;;4.44;4.13;;;;;;;3.81;73.68;102310.88;458038;115;922267;-78
2022/11/28 05:37:18;;;;;;;5.26;4.72;;;;;;;3.81;73.60;102316.28;457595;115;930527;-77
2022/11/28 05:38:22;;;;;;;4.49;4.14;;;;;;;3.81;73.69;102310.02;457529;116;922532;-78
2022/11/28 05:39:25;;;;;;;4.51;4.16;;;;;;;3.80;73.52;102314.59;457419;116;923007;-75
2022/11/28 05:40:29;;;;;;;4.70;4.30;;;;;;;3.81;73.62;102313.58;457321;116;930435;-77
2022/11/28 05:41:32;;;;;;;5.89;4.05;;;;;;;3.82;73.53;102317.14;457453;116;930567;-79
2022/11/28 05:42:36;;;;;;;4.61;4.21;;;;;;;3.83;73.45;102316.16;457422;116;922583;-74
2022/11/28 05:43:39;;;;;;;4.95;4.55;;;;;;;3.83;73.56;102308.92;457359;116;930503;-75
2022/11/28 05:44:42;;;;;;;5.55;4.17;;;;;;;3.85;73.36;102315.06;456440;115;930622;-79
2022/11/28 05:45:45;;;;;;;4.94;4.39;;;;;;;3.86;73.57;102311.34;452448;117;923083;-79
2022/11/28 05:46:49;;;;;;;4.39;3.99;;;;;;;3.89;73.66;102312.95;452385;117;922399;-77
2022/11/28 05:47:52;;;;;;;6.06;4.86;;;;;;;3.92;73.65;102310.83;443768;119;922882;-79
2022/11/28 05:48:56;;;;;;;5.10;4.62;;;;;;;3.93;73.64;102317.09;444164;117;923061;-76
2022/11/28 05:49:59;;;;;;;4.81;4.29;;;;;;;3.96;73.57;102312.31;452384;117;922622;-75
2022/11/28 05:51:06;;;;;;;5.16;4.44;;;;;;;3.99;73.44;102313.88;452303;117;930684;-80
2022/11/28 05:52:10;;;;;;;5.28;4.75;;;;;;;4.00;73.40;102308.36;452185;117;930472;-77
2022/11/28 05:53:13;;;;;;;5.06;4.62;;;;;;;4.00;73.31;102312.89;452467;117;922450;-82
2022/11/28 05:54:16;;;;;;;5.86;5.41;;;;;;;4.01;73.26;102310.08;452771;117;922242;-82
2022/11/28 05:55:19;;;;;;;5.55;5.15;;;;;;;4.02;73.22;102324.43;444365;119;922855;-81
2022/11/28 05:56:23;;;;;;;5.72;5.22;;;;;;;4.00;73.17;102319.16;444186;117;923028;-80
2022/11/28 05:57:28;;;;;;;6.14;5.58;;;;;;;3.98;73.14;102318.41;455517;116;928055;-79
2022/11/28 05:58:31;;;;;;;5.83;5.17;;;;;;;3.97;73.14;102322.09;449600;116;922969;-76
2022/11/28 05:59:34;;;;;;;6.17;5.58;;;;;;;3.97;73.17;102319.39;449665;118;922513;-82
2022/11/28 06:00:37;;;;;;;6.67;6.02;;;;;;;3.97;73.07;102319.39;449584;118;923474;-83
2022/11/28 06:01:41;;;;;;;6.12;5.56;;;;;;;3.98;73.18;102323.81;449677;118;922546;-87
2022/11/28 06:02:44;;;;;;;6.61;6.02;;;;;;;3.97;73.20;102319.39;449593;118;922975;-82
2022/11/28 06:03:47;;;;;;;6.08;5.58;;;;;;;3.98;73.06;102322.95;449738;118;922600;-79
2022/11/28 06:04:50;;;;;;;6.39;5.79;;;;;;;3.98;73.07;102326.52;449648;118;922395;-78
2022/11/28 06:05:53;;;;;;;5.92;5.42;;;;;;;4.00;73.08;102323.69;449696;117;923060;-77
2022/11/28 06:06:57;;;;;;;5.17;4.77;;;;;;;4.00;73.05;102327.25;449695;117;922860;-74
2022/11/28 06:08:00;;;;;;;6.79;4.62;;;;;;;4.00;73.04;102329.95;449710;118;923827;-81
2022/11/28 06:09:04;;;;;;;4.94;4.51;;;;;;;4.01;73.01;102330.81;449704;117;922429;-78
2022/11/28 06:10:08;;;;;;;5.36;4.85;;;;;;;4.00;72.86;102327.25;450467;116;922611;-77
2022/11/28 06:11:13;;;;;;;5.62;5.08;;;;;;;4.01;72.70;102330.81;456918;116;922319;-79
2022/11/28 06:12:16;;;;;;;5.21;4.69;;;;;;;3.99;72.63;102336.33;457085;116;922814;-79
2022/11/28 06:13:19;;;;;;;5.12;4.73;;;;;;;4.00;72.59;102329.09;457471;116;922957;-78
2022/11/28 06:14:22;;;;;;;5.22;4.81;;;;;;;4.01;72.58;102336.20;457456;116;922497;-77
2022/11/28 06:15:25;;;;;;;4.84;4.44;;;;;;;4.00;72.55;102335.34;456859;114;922497;-77
2022/11/28 06:16:29;;;;;;;4.88;4.44;;;;;;;4.01;72.43;102333.51;457656;116;922295;-78
2022/11/28 06:17:33;;;;;;;5.12;4.65;;;;;;;4.02;72.42;102335.23;457598;116;922570;-81
2022/11/28 06:18:37;;;;;;;4.78;4.37;;;;;;;4.03;72.41;102339.61;457526;116;922978;-83
2022/11/28 06:19:40;;;;;;;4.68;4.08;;;;;;;4.04;72.32;102335.94;457389;116;922469;-80
2022/11/28 06:20:44;;;;;;;5.12;4.72;;;;;;;4.05;72.25;102338.52;457051;115;922630;-83
2022/11/28 06:21:49;;;;;;;5.16;4.78;;;;;;;4.07;72.15;102343.79;457566;116;922641;-81
2022/11/28 06:22:52;;;;;;;5.09;4.69;;;;;;;4.07;72.08;102341.09;457284;116;922528;-79
2022/11/28 06:23:58;;;;;;;4.33;3.94;;;;;;;4.08;72.08;102342.81;457455;116;922400;-80
2022/11/28 06:25:01;;;;;;;4.88;4.48;;;;;;;4.08;71.93;102343.64;456993;114;922879;-86
2022/11/28 06:26:07;;;;;;;5.52;5.03;;;;;;;4.08;71.86;102343.64;457474;116;922968;-75
2022/11/28 06:27:10;;;;;;;5.24;4.79;;;;;;;4.09;71.89;102345.35;457301;115;922601;-79
2022/11/28 06:28:13;;;;;;;5.60;5.14;;;;;;;4.10;71.92;102351.61;457502;116;922632;-80
2022/11/28 06:29:16;;;;;;;4.98;4.58;;;;;;;4.11;71.88;102347.94;457510;116;922639;-77
2022/11/28 06:30:19;;;;;;;5.54;5.03;;;;;;;4.11;71.93;102347.94;457183;116;922511;-76
2022/11/28 06:31:26;;;;;;;6.23;5.36;;;;;;;4.10;71.84;102347.07;457472;116;922352;-80
2022/11/28 06:32:30;;;;;;;5.61;5.11;;;;;;;4.12;71.84;102349.66;457333;116;922491;-80
2022/11/28 06:33:33;;;;;;;5.69;5.07;;;;;;;4.13;71.87;102354.07;457546;116;922514;-79
2022/11/28 06:34:36;;;;;;;4.97;4.57;;;;;;;4.13;71.87;102354.07;457519;115;922498;-84
2022/11/28 06:35:39;;;;;;;5.27;4.87;;;;;;;4.13;71.82;102354.93;456936;116;922697;-82
2022/11/28 06:36:44;;;;;;;5.04;4.64;;;;;;;4.14;71.69;102358.45;457604;115;922670;-84
2022/11/28 06:37:47;;;;;;;4.93;4.54;;;;;;;4.12;71.64;102358.61;457409;116;922485;-79
2022/11/28 06:38:50;;;;;;;5.37;4.97;;;;;;;4.12;71.67;102360.45;457516;116;922562;-79
2022/11/28 06:39:53;;;;;;;5.61;5.21;;;;;;;4.10;71.55;102359.71;457464;116;922538;-81
2022/11/28 06:40:58;;;;;;;6.24;5.37;;;;;;;4.09;71.58;102361.55;456742;116;922508;-81
2022/11/28 06:42:01;;;;;;;6.04;5.45;;;;;;;4.08;71.58;102367.92;457317;116;928885;-78
2022/11/28 06:43:05;;;;;;;6.38;5.74;;;;;;;4.09;71.67;102371.48;457381;116;930519;-83
2022/11/28 06:44:14;;;;;;;6.14;5.57;;;;;;;4.08;71.75;102372.50;457426;116;922696;-77
2022/11/28 06:45:17;;;;;;;5.97;5.47;;;;;;;4.09;71.81;102368.79;457032;116;922403;-81
2022/11/28 06:46:21;;;;;;;5.99;5.48;;;;;;;4.11;71.82;102364.12;457398;116;922902;-80
2022/11/28 06:47:24;;;;;;;5.79;5.37;;;;;;;4.11;71.71;102370.39;457383;115;930591;-79
2022/11/28 06:48:28;;;;;;;5.49;5.03;;;;;;;4.13;71.74;102372.97;457443;115;922685;-84
2022/11/28 06:49:31;;;;;;;6.04;5.53;;;;;;;4.14;71.80;102374.66;457394;116;922555;-87
2022/11/28 06:50:34;;;;;;;5.39;4.92;;;;;;;4.15;71.71;102376.38;457288;114;923451;-84
2022/11/28 06:51:39;;;;;;;4.83;4.42;;;;;;;4.16;71.77;102369.99;457449;116;922813;-82
2022/11/28 06:52:42;;;;;;;5.45;5.05;;;;;;;4.19;71.68;102375.12;457366;116;923189;-79
2022/11/28 06:53:45;;;;;;;4.98;4.59;;;;;;;4.20;71.57;102371.44;457507;116;922371;-76
2022/11/28 06:54:48;;;;;;;6.21;5.71;;;;;;;4.20;71.59;102379.53;457505;116;922886;-77
2022/11/28 06:55:52;;;;;;;5.82;5.38;;;;;;;4.21;71.53;102370.45;456933;115;922516;-78
2022/11/28 06:56:55;;;;;;;5.75;5.24;;;;;;;4.22;71.63;102382.98;457683;115;922492;-78
2022/11/28 06:57:58;;;;;;;5.47;5.08;;;;;;;4.23;71.49;102378.44;458567;115;922905;-78
2022/11/28 06:59:01;;;;;;;5.53;5.03;;;;;;;4.24;71.47;102372.05;458508;115;922577;-76
2022/11/28 07:00:05;;;;;;;5.04;4.61;;;;;;;4.26;71.41;102378.16;458225;115;922549;-76
2022/11/28 07:01:12;;;;;;;6.24;4.58;;;;;;;4.26;71.32;102373.63;457461;116;922487;-78
2022/11/28 07:02:15;;;;;;;6.37;5.54;;;;;;;4.27;71.32;102374.48;455987;115;923262;-75
2022/11/28 07:03:19;;;;;;;7.51;6.84;;;;;;;4.25;71.20;102374.60;457487;116;922753;-78
2022/11/28 07:04:22;;;;;;;7.44;6.89;;;;;;;4.24;71.03;102378.31;457252;116;922929;-82
2022/11/28 07:05:26;;;;;;;7.55;6.94;;;;;;;4.24;70.88;102380.16;457410;114;922694;-77
2022/11/28 07:06:29;;;;;;;6.08;5.61;;;;;;;4.22;70.96;102382.98;457382;116;922455;-78
2022/11/28 07:07:33;;;;;;;5.14;4.70;;;;;;;4.22;70.81;102382.12;457429;115;922445;-79
2022/11/28 07:08:38;;;;;;;5.61;5.11;;;;;;;4.22;70.79;102380.28;455074;116;922569;-78
2022/11/28 07:09:42;;;;;;;4.70;4.33;;;;;;;4.22;70.74;102388.38;457845;116;922704;-77
2022/11/28 07:10:45;;;;;;;4.92;4.53;;;;;;;4.21;70.68;102392.05;457285;116;922675;-76
2022/11/28 07:11:49;;;;;;;4.70;4.37;;;;;;;4.21;70.63;102381.26;457372;116;922284;-80
2022/11/28 07:12:59;;;;;;;4.96;4.56;;;;;;;4.22;70.61;102382.98;456931;116;922537;-79
2022/11/28 07:14:04;;;;;;;5.69;4.35;;;;;;;4.22;70.64;102385.67;456291;116;923248;-79
2022/11/28 07:15:08;;;;;;;4.10;3.80;;;;;;;4.24;70.53;102385.55;455948;114;922642;-81
2022/11/28 07:16:15;;;;;;;4.61;4.20;;;;;;;4.24;70.55;102389.11;449493;117;922511;-80
2022/11/28 07:17:18;;;;;;;4.09;3.66;;;;;;;4.24;70.37;102381.02;449354;118;922609;-82
2022/11/28 07:18:21;;;;;;;3.85;3.52;;;;;;;4.25;70.32;102382.70;449573;118;922568;-79
2022/11/28 07:19:25;;;;;;;4.16;3.79;;;;;;;4.27;70.38;102396.94;449471;117;922661;-83
2022/11/28 07:20:28;;;;;;;4.11;3.71;;;;;;;4.27;70.37;102383.44;453296;115;923594;-81
2022/11/28 07:21:32;;;;;;;5.87;4.15;;;;;;;4.28;70.21;102385.16;457315;114;923018;-74
2022/11/28 07:22:35;;;;;;;8.83;7.99;;;;;;;4.28;70.11;102387.86;457279;115;930485;-78
2022/11/28 07:23:38;;;;;;;5.37;4.84;;;;;;;4.29;70.14;102386.88;457407;116;922972;-72
2022/11/28 07:24:41;;;;;;;4.00;3.70;;;;;;;4.30;69.99;102385.87;449563;117;922620;-75
2022/11/28 07:25:44;;;;;;;3.74;3.44;;;;;;;4.30;69.89;102393.97;456071;114;922469;-77
2022/11/28 07:26:47;;;;;;;4.21;3.28;;;;;;;4.31;69.82;102386.72;457389;116;923005;-76